createdAt,value
2022-08-28T00:00:16.885Z,23.97
2022-08-28T00:02:53.218Z,24.33
2022-08-28T00:05:25.351Z,24.13
2022-08-28T00:08:07.890Z,24.67
2022-08-28T00:10:44.643Z,25.20
2022-08-28T00:13:31.711Z,24.50
2022-08-28T00:16:02.067Z,24.83
2022-08-28T00:18:42.603Z,25.03
2022-08-28T00:21:29.914Z,25.30
2022-08-28T00:23:59.053Z,25.70
2022-08-28T00:26:47.390Z,25.70
2022-08-28T00:29:17.989Z,27.00
2022-08-28T00:31:48.187Z,26.90
2022-08-28T00:34:38.935Z,27.97
2022-08-28T00:37:14.028Z,29.17
2022-08-28T00:39:51.620Z,28.23
2022-08-28T00:42:20.863Z,28.90
2022-08-28T00:45:11.747Z,29.77
2022-08-28T00:47:41.162Z,27.90
2022-08-28T00:50:12.425Z,29.10
2022-08-28T00:52:48.036Z,30.20
2022-08-28T00:55:19.797Z,30.20
2022-08-28T00:57:52.204Z,32.03
2022-08-28T01:00:34.761Z,30.90
2022-08-28T01:03:16.163Z,30.27
2022-08-28T01:05:48.075Z,30.53
2022-08-28T01:08:30.360Z,30.10
2022-08-28T01:11:03.895Z,30.50
2022-08-28T01:13:34.601Z,30.63
2022-08-28T01:16:10.115Z,31.83
2022-08-28T01:18:55.862Z,31.27
2022-08-28T01:21:40.947Z,31.73
2022-08-28T01:24:22.147Z,32.27
2022-08-28T01:26:58.225Z,33.13
2022-08-28T01:29:34.680Z,33.57
2022-08-28T01:32:02.954Z,33.67
2022-08-28T01:34:32.755Z,34.23
2022-08-28T01:37:05.753Z,34.20
2022-08-28T01:39:35.314Z,35.00
2022-08-28T01:42:14.848Z,34.63
2022-08-28T01:44:47.963Z,34.27
2022-08-28T01:47:18.374Z,34.47
2022-08-28T01:49:54.534Z,34.70
2022-08-28T01:52:26.316Z,34.80
2022-08-28T01:55:00.382Z,35.67
2022-08-28T01:57:30.676Z,36.77
2022-08-28T01:59:58.869Z,36.07
2022-08-28T02:02:32.802Z,36.33
2022-08-28T02:05:01.955Z,35.67
2022-08-28T02:07:38.272Z,36.67
2022-08-28T02:10:22.663Z,37.70
2022-08-28T02:12:59.237Z,38.37
2022-08-28T02:15:46.927Z,39.03
2022-08-28T02:18:34.861Z,39.97
2022-08-28T02:21:11.436Z,41.37
2022-08-28T02:23:43.039Z,42.40
2022-08-28T02:26:13.950Z,44.33
2022-08-28T02:29:00.895Z,44.33
2022-08-28T02:31:54.616Z,44.97
2022-08-28T02:34:34.175Z,45.03
2022-08-28T02:37:23.579Z,46.57
2022-08-28T02:39:59.432Z,47.70
2022-08-28T02:42:30.105Z,48.00
2022-08-28T02:45:08.588Z,48.57
2022-08-28T02:47:39.037Z,48.60
2022-08-28T02:50:08.462Z,49.30
2022-08-28T02:52:42.987Z,50.63
2022-08-28T02:55:21.491Z,49.90
2022-08-28T02:57:55.851Z,50.50
2022-08-28T03:00:27.036Z,49.83
2022-08-28T03:02:57.214Z,49.87
2022-08-28T03:05:30.323Z,51.63
2022-08-28T03:08:22.088Z,52.03
2022-08-28T03:10:56.607Z,51.60
2022-08-28T03:13:32.548Z,53.00
2022-08-28T03:16:31.320Z,53.70
2022-08-28T03:18:59.667Z,53.30
2022-08-28T03:21:28.929Z,52.40
2022-08-28T03:23:58.212Z,52.33
2022-08-28T03:26:30.415Z,53.17
2022-08-28T03:29:16.264Z,52.40
2022-08-28T03:31:50.151Z,53.53
2022-08-28T03:34:19.268Z,53.90
2022-08-28T03:36:54.487Z,57.60
2022-08-28T03:39:22.611Z,59.50
2022-08-28T03:42:06.151Z,60.73
2022-08-28T03:44:39.064Z,60.87
2022-08-28T03:47:09.230Z,60.53
2022-08-28T03:49:55.481Z,62.33
2022-08-28T03:52:24.519Z,64.50
2022-08-28T03:54:55.878Z,64.47
2022-08-28T03:57:25.477Z,65.20
2022-08-28T03:59:56.238Z,67.30
2022-08-28T04:02:26.528Z,68.37
2022-08-28T04:04:57.057Z,70.47
2022-08-28T04:07:31.016Z,71.70
2022-08-28T04:10:01.283Z,72.90
2022-08-28T04:12:30.475Z,75.37
2022-08-28T04:15:06.956Z,77.77
2022-08-28T04:17:39.776Z,78.23
2022-08-28T04:20:37.627Z,79.60
2022-08-28T04:23:10.190Z,78.10
2022-08-28T04:25:41.776Z,78.20
2022-08-28T04:28:19.153Z,78.27
2022-08-28T04:30:56.259Z,78.73
2022-08-28T04:33:38.927Z,77.07
2022-08-28T04:36:11.734Z,79.70
2022-08-28T04:38:44.061Z,81.83
2022-08-28T04:41:17.667Z,82.33
2022-08-28T04:43:57.899Z,82.40
2022-08-28T04:46:31.226Z,84.10
2022-08-28T04:49:01.171Z,85.07
2022-08-28T04:51:35.453Z,81.93
2022-08-28T04:54:13.171Z,79.87
2022-08-28T04:56:42.285Z,80.83
2022-08-28T04:59:12.847Z,81.53
2022-08-28T05:02:00.668Z,77.77
2022-08-28T05:04:33.973Z,77.87
2022-08-28T05:07:04.370Z,74.00
2022-08-28T05:09:41.803Z,75.10
2022-08-28T05:12:17.312Z,71.30
2022-08-28T05:14:53.604Z,74.40
2022-08-28T05:17:41.470Z,75.57
2022-08-28T05:20:11.438Z,76.17
2022-08-28T05:22:41.659Z,78.83
2022-08-28T05:25:10.483Z,79.90
2022-08-28T05:27:46.474Z,80.80
2022-08-28T05:30:17.196Z,80.80
2022-08-28T05:32:50.023Z,82.47
2022-08-28T05:35:20.280Z,82.73
2022-08-28T05:37:52.539Z,82.80
2022-08-28T05:40:23.468Z,85.10
2022-08-28T05:43:18.212Z,86.43
2022-08-28T05:46:17.912Z,83.73
2022-08-28T05:48:49.583Z,84.00
2022-08-28T05:51:22.381Z,86.70
2022-08-28T05:53:52.178Z,85.67
2022-08-28T05:56:23.158Z,87.60
2022-08-28T05:59:03.298Z,88.80
2022-08-28T06:01:35.661Z,89.30
2022-08-28T06:04:15.892Z,91.33
2022-08-28T06:06:53.318Z,90.17
2022-08-28T06:09:30.278Z,92.47
2022-08-28T06:12:09.741Z,90.93
2022-08-28T06:14:40.479Z,93.60
2022-08-28T06:17:09.603Z,92.33
2022-08-28T06:19:41.531Z,94.10
2022-08-28T06:22:12.158Z,95.73
2022-08-28T06:24:40.407Z,95.73
2022-08-28T06:27:08.712Z,98.00
2022-08-28T06:29:37.838Z,95.10
2022-08-28T06:32:09.110Z,92.03
2022-08-28T06:34:39.799Z,90.47
2022-08-28T06:37:10.382Z,83.17
2022-08-28T06:39:40.610Z,76.30
2022-08-28T06:42:10.793Z,70.90
2022-08-28T06:44:40.060Z,61.00
2022-08-28T06:47:25.881Z,55.53
2022-08-28T06:49:55.776Z,42.00
2022-08-28T06:52:25.956Z,38.87
2022-08-28T06:55:01.031Z,36.87
2022-08-28T06:57:30.014Z,33.57
2022-08-28T07:00:01.388Z,30.10
2022-08-28T07:02:32.767Z,26.03
2022-08-28T07:05:09.697Z,22.27
2022-08-28T07:07:37.917Z,22.60
2022-08-28T07:10:15.622Z,20.67
2022-08-28T07:12:46.235Z,19.70
2022-08-28T07:15:15.523Z,20.03
2022-08-28T07:17:49.482Z,19.97
2022-08-28T07:20:20.614Z,19.87
2022-08-28T07:23:02.893Z,19.53
2022-08-28T07:25:32.435Z,19.93
2022-08-28T07:28:02.007Z,20.30
2022-08-28T07:30:31.171Z,20.03
2022-08-28T07:33:05.370Z,19.00
2022-08-28T07:35:48.628Z,18.70
2022-08-28T07:38:17.859Z,19.30
2022-08-28T07:40:48.059Z,19.10
2022-08-28T07:43:41.205Z,18.83
2022-08-28T07:46:11.644Z,18.67
2022-08-28T07:48:45.891Z,18.93
2022-08-28T07:51:20.810Z,18.60
2022-08-28T07:53:59.810Z,18.13
2022-08-28T07:56:33.514Z,18.87
2022-08-28T07:59:09.164Z,18.90
2022-08-28T08:01:39.508Z,18.70
2022-08-28T08:04:12.896Z,18.57
2022-08-28T08:06:43.599Z,19.17
2022-08-28T08:09:14.030Z,19.20
2022-08-28T08:11:45.451Z,19.00
2022-08-28T08:14:15.256Z,19.50
2022-08-28T08:16:52.623Z,19.53
2022-08-28T08:19:27.830Z,18.63
2022-08-28T08:22:08.853Z,18.10
2022-08-28T08:24:47.797Z,17.93
2022-08-28T08:27:22.348Z,18.40
2022-08-28T08:29:51.475Z,18.40
2022-08-28T08:32:19.741Z,18.17
2022-08-28T08:35:41.555Z,18.47
2022-08-28T08:38:12.410Z,18.67
2022-08-28T08:40:43.786Z,18.30
2022-08-28T08:43:17.588Z,18.07
2022-08-28T08:45:54.827Z,18.80
2022-08-28T08:48:30.312Z,18.13
2022-08-28T08:51:05.002Z,18.60
2022-08-28T08:53:48.489Z,18.70
2022-08-28T08:56:21.840Z,19.43
2022-08-28T08:58:54.768Z,19.57
2022-08-28T09:01:30.268Z,18.80
2022-08-28T09:04:09.755Z,19.00
2022-08-28T09:06:50.044Z,18.87
2022-08-28T09:09:30.531Z,19.10
2022-08-28T09:12:04.931Z,18.60
2022-08-28T09:14:50.850Z,18.57
2022-08-28T09:17:21.333Z,18.33
2022-08-28T09:19:50.562Z,18.50
2022-08-28T09:22:31.157Z,18.40
2022-08-28T09:25:12.718Z,18.20
2022-08-28T09:27:53.981Z,18.13
2022-08-28T09:30:32.931Z,18.00
2022-08-28T09:33:09.453Z,17.97
2022-08-28T09:35:47.036Z,18.33
2022-08-28T09:38:27.654Z,17.27
2022-08-28T09:41:28.497Z,17.90
2022-08-28T09:44:02.020Z,17.37
2022-08-28T09:46:35.035Z,17.00
2022-08-28T09:49:12.048Z,17.30
2022-08-28T09:51:42.417Z,17.23
2022-08-28T09:54:20.484Z,17.30
2022-08-28T09:56:52.560Z,17.50
2022-08-28T09:59:24.944Z,18.20
2022-08-28T10:02:13.364Z,17.87
2022-08-28T10:05:11.584Z,17.00
2022-08-28T10:07:55.424Z,17.10
2022-08-28T10:10:31.065Z,17.63
2022-08-28T10:13:11.339Z,18.40
2022-08-28T10:16:09.658Z,17.30
2022-08-28T10:18:57.799Z,17.67
2022-08-28T10:21:38.439Z,17.90
2022-08-28T10:24:28.447Z,17.77
2022-08-28T10:27:05.454Z,17.90
2022-08-28T10:29:51.887Z,17.37
2022-08-28T10:32:40.882Z,17.73
2022-08-28T10:35:15.391Z,16.47
2022-08-28T10:37:58.367Z,17.10
2022-08-28T10:40:31.873Z,17.20
2022-08-28T10:43:32.117Z,17.80
2022-08-28T10:56:52.248Z,16.70
2022-08-28T10:59:26.523Z,16.97
2022-08-28T11:01:55.577Z,17.80
2022-08-28T11:04:29.313Z,17.67
2022-08-28T11:07:04.452Z,18.10
2022-08-28T11:09:36.616Z,18.53
2022-08-28T11:12:10.290Z,17.30
2022-08-28T11:14:48.422Z,18.27
2022-08-28T11:17:38.744Z,18.50
2022-08-28T11:20:15.408Z,17.67
2022-08-28T11:22:48.047Z,18.10
2022-08-28T11:25:26.496Z,16.57
2022-08-28T11:28:18.923Z,18.70
2022-08-28T11:31:30.508Z,18.00
2022-08-28T11:34:00.991Z,18.50
2022-08-28T11:37:01.427Z,18.80
2022-08-28T11:39:30.171Z,17.97
2022-08-28T11:42:33.481Z,19.50
2022-08-28T11:45:04.840Z,17.60
2022-08-28T11:47:52.230Z,17.40
2022-08-28T11:50:53.385Z,17.50
2022-08-28T11:53:52.007Z,18.73
2022-08-28T11:56:37.139Z,18.07
2022-08-28T11:59:35.134Z,18.10
2022-08-28T12:02:48.819Z,17.90
2022-08-28T12:05:50.622Z,16.63
2022-08-28T12:09:11.858Z,17.70
2022-08-28T12:11:58.824Z,17.80
2022-08-28T12:15:07.829Z,17.67
2022-08-28T12:17:47.558Z,18.17
2022-08-28T12:20:25.246Z,18.27
2022-08-28T12:22:58.388Z,18.53
2022-08-28T12:25:32.823Z,18.23
2022-08-28T12:28:13.133Z,18.47
2022-08-28T12:30:49.944Z,18.10
2022-08-28T12:33:26.954Z,17.93
2022-08-28T12:36:02.067Z,17.83
2022-08-28T12:38:34.719Z,17.20
2022-08-28T12:41:04.014Z,17.57
2022-08-28T12:43:45.659Z,17.83
2022-08-28T12:46:27.160Z,18.47
2022-08-28T12:48:58.806Z,18.83
2022-08-28T12:51:30.885Z,17.80
2022-08-28T12:54:03.131Z,17.90
2022-08-28T12:56:36.275Z,18.30
2022-08-28T12:59:27.581Z,18.60
2022-08-28T13:02:22.577Z,18.53
2022-08-28T13:04:57.224Z,18.90
2022-08-28T13:07:32.368Z,18.20
2022-08-28T13:10:06.059Z,18.73
2022-08-28T13:12:56.096Z,19.13
2022-08-28T13:15:54.456Z,19.13
2022-08-28T13:18:55.347Z,18.47
2022-08-28T13:21:34.388Z,18.90
2022-08-28T13:24:27.491Z,17.47
2022-08-28T13:27:07.726Z,17.70
2022-08-28T13:29:38.262Z,18.10
2022-08-28T13:32:10.272Z,17.90
2022-08-28T13:34:47.692Z,17.47
2022-08-28T13:37:41.970Z,17.23
2022-08-28T13:40:30.317Z,17.40
2022-08-28T13:43:07.090Z,17.43
2022-08-28T13:45:42.509Z,17.97
2022-08-28T13:48:22.695Z,17.87
2022-08-28T13:50:54.434Z,17.37
2022-08-28T13:53:25.444Z,17.90
2022-08-28T13:55:53.858Z,18.43
2022-08-28T13:58:22.339Z,18.23
2022-08-28T14:00:52.947Z,18.50
2022-08-28T14:03:38.687Z,18.03
2022-08-28T14:06:11.446Z,18.33
2022-08-28T14:08:43.423Z,17.70
2022-08-28T14:11:18.830Z,17.27
2022-08-28T14:13:55.460Z,16.90
2022-08-28T14:16:26.362Z,17.10
2022-08-28T14:19:05.216Z,17.33
2022-08-28T14:21:34.957Z,17.83
2022-08-28T14:24:13.203Z,17.17
2022-08-28T14:26:42.730Z,17.17
2022-08-28T14:29:15.328Z,17.30
2022-08-28T14:31:50.901Z,17.40
2022-08-28T14:34:24.430Z,17.57
2022-08-28T14:36:55.375Z,17.77
2022-08-28T14:39:27.103Z,17.70
2022-08-28T14:41:58.483Z,18.40
2022-08-28T14:44:28.241Z,18.50
2022-08-28T14:46:57.329Z,18.10
2022-08-28T14:49:28.892Z,18.23
2022-08-28T14:51:58.294Z,18.00
2022-08-28T14:54:29.491Z,18.27
2022-08-28T14:57:03.846Z,17.90
2022-08-28T14:59:34.035Z,17.77
2022-08-28T15:02:05.690Z,17.40
2022-08-28T15:04:42.335Z,17.57
2022-08-28T15:07:21.311Z,17.47
2022-08-28T15:09:59.497Z,18.00
2022-08-28T15:12:33.630Z,17.70
2022-08-28T15:15:09.689Z,17.53
2022-08-28T15:17:38.045Z,18.20
2022-08-28T15:20:22.113Z,18.10
2022-08-28T15:22:50.415Z,17.43
2022-08-28T15:25:23.758Z,18.00
2022-08-28T15:27:58.916Z,17.57
2022-08-28T15:30:28.488Z,18.17
2022-08-28T15:32:59.163Z,18.33
2022-08-28T15:35:40.002Z,18.50
2022-08-28T15:38:14.263Z,18.10
2022-08-28T15:40:59.922Z,17.67
2022-08-28T15:43:28.242Z,18.20
2022-08-28T15:45:57.650Z,18.50
2022-08-28T15:48:27.150Z,17.77
2022-08-28T15:50:58.701Z,17.80
2022-08-28T15:53:37.176Z,17.50
2022-08-28T15:56:06.782Z,18.37
2022-08-28T15:58:35.092Z,17.93
2022-08-28T16:01:04.592Z,18.40
2022-08-28T16:03:34.392Z,17.77
2022-08-28T16:06:24.505Z,18.50
2022-08-28T16:08:59.797Z,19.10
2022-08-28T16:11:32.155Z,18.50
2022-08-28T16:14:20.871Z,18.13
2022-08-28T16:16:51.447Z,19.93
2022-08-28T16:19:29.095Z,18.80
2022-08-28T16:22:08.212Z,18.30
2022-08-28T16:24:36.932Z,18.40
2022-08-28T16:27:06.482Z,18.37
2022-08-28T16:29:46.387Z,18.50
2022-08-28T16:32:46.929Z,17.80
2022-08-28T16:35:33.964Z,17.27
2022-08-28T16:38:06.926Z,17.60
2022-08-28T16:40:43.096Z,18.10
2022-08-28T16:43:11.730Z,17.80
2022-08-28T16:46:03.844Z,18.30
2022-08-28T16:48:35.507Z,18.23
2022-08-28T16:51:06.126Z,19.33
2022-08-28T16:53:46.956Z,18.73
2022-08-28T16:56:18.084Z,17.97
2022-08-28T16:59:00.888Z,17.80
2022-08-28T17:01:30.359Z,17.80
2022-08-28T17:04:12.432Z,18.43
2022-08-28T17:06:44.937Z,18.17
2022-08-28T17:09:29.907Z,17.40
2022-08-28T17:12:06.934Z,17.47
2022-08-28T17:14:37.471Z,17.67
2022-08-28T17:17:06.732Z,17.57
2022-08-28T17:19:41.275Z,17.60
2022-08-28T17:22:32.607Z,17.17
2022-08-28T17:25:09.583Z,17.60
2022-08-28T17:27:38.439Z,17.20
2022-08-28T17:30:09.436Z,17.50
2022-08-28T17:32:43.980Z,17.43
2022-08-28T17:35:20.488Z,17.20
2022-08-28T17:38:16.019Z,17.23
2022-08-28T17:40:54.199Z,17.00
2022-08-28T17:43:28.219Z,17.17
2022-08-28T17:46:07.599Z,17.63
2022-08-28T17:48:38.995Z,17.50
2022-08-28T17:51:42.320Z,17.37
2022-08-28T17:54:28.744Z,17.30
2022-08-28T17:57:02.782Z,17.40
2022-08-28T17:59:33.061Z,17.30
2022-08-28T18:02:10.886Z,17.00
2022-08-28T18:04:39.539Z,17.20
2022-08-28T18:07:07.924Z,16.53
2022-08-28T18:09:45.037Z,17.33
2022-08-28T18:12:15.450Z,16.60
2022-08-28T18:14:44.125Z,17.10
2022-08-28T18:17:38.847Z,17.60
2022-08-28T18:20:15.976Z,17.30
2022-08-28T18:22:53.570Z,17.87
2022-08-28T18:25:50.561Z,17.80
2022-08-28T18:28:44.701Z,18.07
2022-08-28T18:31:17.404Z,17.80
2022-08-28T18:34:30.846Z,18.27
2022-08-28T18:37:01.035Z,18.50
2022-08-28T18:39:54.404Z,18.07
2022-08-28T18:42:26.508Z,18.50
2022-08-28T18:45:00.966Z,19.20
2022-08-28T18:47:30.184Z,17.20
2022-08-28T18:50:05.074Z,16.73
2022-08-28T18:52:37.020Z,17.87
2022-08-28T18:55:13.918Z,17.27
2022-08-28T18:57:42.777Z,18.77
2022-08-28T19:00:15.988Z,19.30
2022-08-28T19:02:57.751Z,18.10
2022-08-28T19:05:34.242Z,18.40
2022-08-28T19:08:19.797Z,18.30
2022-08-28T19:10:49.747Z,19.23
2022-08-28T19:13:20.581Z,18.60
2022-08-28T19:16:31.691Z,18.40
2022-08-28T19:19:09.645Z,19.30
2022-08-28T19:21:39.978Z,18.53
2022-08-28T19:24:33.866Z,18.63
2022-08-28T19:27:13.179Z,19.10
2022-08-28T19:30:10.027Z,18.90
2022-08-28T19:32:48.297Z,19.20
2022-08-28T19:35:28.144Z,18.73
2022-08-28T19:38:00.543Z,18.60
2022-08-28T19:40:46.571Z,18.60
2022-08-28T19:43:17.192Z,19.13
2022-08-28T19:45:52.531Z,19.20
2022-08-28T19:52:03.474Z,18.87
2022-08-28T19:54:37.130Z,18.73
2022-08-28T19:57:09.075Z,18.80
2022-08-28T19:59:38.587Z,18.87
2022-08-28T20:02:14.199Z,18.70
2022-08-28T20:04:59.060Z,18.53
2022-08-28T20:07:36.232Z,18.77
2022-08-28T20:10:10.456Z,18.50
2022-08-28T20:12:50.538Z,18.90
2022-08-28T20:15:21.123Z,18.97
2022-08-28T20:17:52.038Z,19.80
2022-08-28T20:20:29.852Z,19.30
2022-08-28T20:23:09.240Z,18.30
2022-08-28T20:25:47.873Z,18.53
2022-08-28T20:28:24.464Z,18.30
2022-08-28T20:30:55.153Z,18.07
2022-08-28T20:33:35.592Z,18.40
2022-08-28T20:36:15.318Z,19.47
2022-08-28T20:38:53.254Z,18.90
2022-08-28T20:41:29.225Z,18.90
2022-08-28T20:44:08.085Z,18.77
2022-08-28T20:46:42.580Z,18.70
2022-08-28T20:49:17.668Z,18.97
2022-08-28T20:51:56.857Z,19.20
2022-08-28T20:54:31.134Z,19.87
2022-08-28T20:57:02.604Z,18.50
2022-08-28T20:59:34.428Z,18.60
2022-08-28T21:02:10.622Z,18.20
2022-08-28T21:04:43.068Z,19.00
2022-08-28T21:07:12.566Z,19.50
2022-08-28T21:10:05.424Z,18.90
2022-08-28T21:12:44.062Z,19.40
2022-08-28T21:15:18.847Z,19.10
2022-08-28T21:17:49.348Z,19.87
2022-08-28T21:20:22.045Z,19.70
2022-08-28T21:22:57.490Z,19.43
2022-08-28T21:25:47.010Z,19.53
2022-08-28T21:28:16.675Z,19.43
2022-08-28T21:30:51.076Z,20.20
2022-08-28T21:33:25.488Z,19.53
2022-08-28T21:36:11.073Z,19.10
2022-08-28T21:39:02.930Z,19.47
2022-08-28T21:42:10.582Z,19.73
2022-08-28T21:44:51.894Z,19.13
2022-08-28T21:47:27.681Z,19.60
2022-08-28T21:50:02.113Z,19.13
2022-08-28T21:52:33.340Z,19.10
2022-08-28T21:55:08.584Z,19.53
2022-08-28T21:57:37.591Z,19.30
2022-08-28T22:00:11.514Z,20.50
2022-08-28T22:02:43.304Z,20.47
2022-08-28T22:05:28.610Z,20.27
2022-08-28T22:08:37.324Z,20.90
2022-08-28T22:11:33.695Z,20.07
2022-08-28T22:14:08.467Z,20.00
2022-08-28T22:16:44.947Z,20.40
2022-08-28T22:19:16.512Z,20.63
2022-08-28T22:22:12.567Z,21.10
2022-08-28T22:24:42.010Z,20.70
2022-08-28T22:27:15.169Z,21.03
2022-08-28T22:29:53.840Z,22.20
2022-08-28T22:32:26.968Z,21.40
2022-08-28T22:34:56.494Z,21.03
2022-08-28T22:37:27.089Z,21.07
2022-08-28T22:39:55.844Z,21.93
2022-08-28T22:42:34.739Z,21.40
2022-08-28T22:45:09.664Z,22.77
2022-08-28T22:47:39.677Z,23.17
2022-08-28T22:50:09.367Z,23.00
2022-08-28T22:52:38.142Z,23.43
2022-08-28T22:55:12.326Z,23.10
2022-08-28T22:57:53.546Z,23.43
2022-08-28T23:00:33.442Z,23.67
2022-08-28T23:03:03.722Z,23.10
2022-08-28T23:05:36.276Z,22.87
2022-08-28T23:08:37.774Z,23.63
2022-08-28T23:11:08.492Z,23.90
2022-08-28T23:13:49.757Z,24.23
2022-08-28T23:16:24.215Z,23.13
2022-08-28T23:19:08.853Z,24.00
2022-08-28T23:22:12.113Z,23.77
2022-08-28T23:24:41.430Z,23.83
2022-08-28T23:27:34.949Z,23.77
2022-08-28T23:29:58.258Z,23.77
2022-08-28T23:32:28.777Z,24.90
2022-08-28T23:34:58.805Z,25.83
2022-08-28T23:37:27.145Z,26.00
2022-08-28T23:39:56.678Z,25.90
2022-08-28T23:42:42.145Z,26.70
2022-08-28T23:45:22.290Z,27.07
2022-08-28T23:48:09.383Z,27.73
2022-08-28T23:50:53.912Z,28.00
2022-08-28T23:53:28.879Z,28.27
2022-08-28T23:56:22.486Z,28.07
2022-08-28T23:58:58.662Z,29.37
